Tindal Airport
YPTN : now visible

Aeroporto :











RITROVATECI SU...

 
LOGIN :

Iscrizione | Disclaimer

   EN    FR    IT 

 









Sommario :    VFR   VFR Marginale   IFR   IFR Intensivo   IFR Molto Intensivo
Visibilità : 
Base nubi : 
>= 8 km
>= 3000ft
5 / 8 km
1000 / 3000 ft
1500m / 5 km
500 / 1000 ft
800 / 1500m
200 / 500 ft
< 800m
< 200 ft
Simboli :   Temporali  Nebbia  Neve Forte  Precipitazioni Forti  Vento > 20 kt






- Altitudine del aeroporto : 443 ft
- Codice IATA : KTR


YPTN - Tindal

ULTIMO METAR :
  • 291300Z AUTO 35005KT 9999 // SCT022 BKN047 OVC052 27/25 Q1009

METARs OBSOLETI :
  • 291200Z AUTO 32003KT 9999 // BKN044 BKN054 28/24 Q1009
  • 291130Z AUTO 34004KT 9999 // SCT036 SCT044 28/24 Q1009
  • 291100Z AUTO 33003KT 9999 // SCT046 BKN058 28/24 Q1008
  • 291030Z AUTO 29007KT 9999 // NCD 28/24 Q1008

TAF AMD TAF YPTN
Valido dal 29 a 12 ore il 01 a 12 ore UTC


291139Z 2912/0112 VRB03KT 9999 SCT020
FM010000 35008KT 9999 SCT025
PROB30
TEMPO 2912/2914 VRB20G35KT 1000 TSRA BKN010 SCT040CB
PROB30
TEMPO 0104/0112 VRB20G35KT 1000 TSRA BKN010 SCT040CB



MetMap, La meteo Aeronautica in un colpo d'occhio ! - Copyright ORBIFLY Dicembre 2007 - Disclaimer

ORBIFLY MET'MAP TEAM :

Programmazione e sviluppo : Alexandra Zaïnal
Concezione : Baudouin d'Aumeries
Aiuto per la programmazione : Marc-Olivier Méhu
Supporto tecnico e logistico : Manuel Goepfert
Aiuto per la traduzione : Arnaldo La Scala

Contatto : metmap@orbifly.com




FONTI E CREDITI :

   NOAA       Earth
Advisory